sensor_id;sensor_type;location;lat;lon;timestamp;P1;durP1;ratioP1;P2;durP2;ratioP2
9461;SDS011;4769;42.660;23.262;2024-01-30T00:01:52;8.00;;;5.87;;
9461;SDS011;4769;42.660;23.262;2024-01-30T00:04:18;6.70;;;5.57;;
9461;SDS011;4769;42.660;23.262;2024-01-30T00:06:46;8.70;;;6.07;;
9461;SDS011;4769;42.660;23.262;2024-01-30T00:09:12;5.93;;;4.90;;
9461;SDS011;4769;42.660;23.262;2024-01-30T00:11:38;6.07;;;4.80;;
9461;SDS011;4769;42.660;23.262;2024-01-30T00:14:04;7.93;;;5.30;;
9461;SDS011;4769;42.660;23.262;2024-01-30T00:16:29;7.37;;;5.37;;
9461;SDS011;4769;42.660;23.262;2024-01-30T00:18:55;7.93;;;5.30;;
9461;SDS011;4769;42.660;23.262;2024-01-30T00:21:21;6.10;;;4.70;;
9461;SDS011;4769;42.660;23.262;2024-01-30T00:23:47;6.83;;;5.13;;
9461;SDS011;4769;42.660;23.262;2024-01-30T00:26:13;6.90;;;5.53;;
9461;SDS011;4769;42.660;23.262;2024-01-30T00:28:42;8.60;;;6.23;;
9461;SDS011;4769;42.660;23.262;2024-01-30T00:31:08;16.40;;;13.53;;
9461;SDS011;4769;42.660;23.262;2024-01-30T00:33:37;34.03;;;25.83;;
9461;SDS011;4769;42.660;23.262;2024-01-30T00:36:03;15.30;;;12.73;;
9461;SDS011;4769;42.660;23.262;2024-01-30T00:38:29;8.30;;;7.03;;
9461;SDS011;4769;42.660;23.262;2024-01-30T00:40:55;7.70;;;6.50;;
9461;SDS011;4769;42.660;23.262;2024-01-30T00:43:20;6.87;;;5.47;;
9461;SDS011;4769;42.660;23.262;2024-01-30T00:45:46;8.17;;;6.43;;
9461;SDS011;4769;42.660;23.262;2024-01-30T00:48:11;7.70;;;6.47;;
9461;SDS011;4769;42.660;23.262;2024-01-30T00:50:37;6.90;;;5.63;;
9461;SDS011;4769;42.660;23.262;2024-01-30T00:53:02;8.87;;;5.90;;
9461;SDS011;4769;42.660;23.262;2024-01-30T00:55:28;7.47;;;5.30;;
9461;SDS011;4769;42.660;23.262;2024-01-30T00:57:53;9.17;;;5.93;;
9461;SDS011;4769;42.660;23.262;2024-01-30T01:00:19;8.53;;;6.63;;
9461;SDS011;4769;42.660;23.262;2024-01-30T01:02:46;7.80;;;5.70;;
9461;SDS011;4769;42.660;23.262;2024-01-30T01:05:11;9.33;;;6.20;;
9461;SDS011;4769;42.660;23.262;2024-01-30T01:07:37;9.47;;;6.53;;
9461;SDS011;4769;42.660;23.262;2024-01-30T01:10:02;8.23;;;5.37;;
9461;SDS011;4769;42.660;23.262;2024-01-30T01:12:28;8.73;;;6.03;;
9461;SDS011;4769;42.660;23.262;2024-01-30T01:14:54;8.40;;;6.47;;
9461;SDS011;4769;42.660;23.262;2024-01-30T01:17:19;12.70;;;10.13;;
9461;SDS011;4769;42.660;23.262;2024-01-30T01:19:45;11.47;;;8.57;;
9461;SDS011;4769;42.660;23.262;2024-01-30T01:22:10;9.30;;;6.50;;
9461;SDS011;4769;42.660;23.262;2024-01-30T01:24:36;9.93;;;6.17;;
9461;SDS011;4769;42.660;23.262;2024-01-30T01:27:01;9.20;;;6.00;;
9461;SDS011;4769;42.660;23.262;2024-01-30T01:29:27;8.57;;;6.17;;
9461;SDS011;4769;42.660;23.262;2024-01-30T01:31:56;7.83;;;6.17;;
9461;SDS011;4769;42.660;23.262;2024-01-30T01:34:24;10.07;;;6.27;;
9461;SDS011;4769;42.660;23.262;2024-01-30T01:36:50;8.17;;;5.83;;
9461;SDS011;4769;42.660;23.262;2024-01-30T01:39:16;10.00;;;5.83;;
9461;SDS011;4769;42.660;23.262;2024-01-30T01:41:42;8.27;;;5.70;;
9461;SDS011;4769;42.660;23.262;2024-01-30T01:44:08;7.57;;;5.40;;
9461;SDS011;4769;42.660;23.262;2024-01-30T01:46:34;7.53;;;5.30;;
9461;SDS011;4769;42.660;23.262;2024-01-30T01:49:00;7.37;;;5.37;;
9461;SDS011;4769;42.660;23.262;2024-01-30T01:51:28;7.00;;;4.77;;
9461;SDS011;4769;42.660;23.262;2024-01-30T01:53:56;5.13;;;4.40;;
9461;SDS011;4769;42.660;23.262;2024-01-30T01:56:22;6.63;;;4.73;;
9461;SDS011;4769;42.660;23.262;2024-01-30T01:58:49;6.77;;;5.23;;
9461;SDS011;4769;42.660;23.262;2024-01-30T02:01:15;5.60;;;4.83;;
9461;SDS011;4769;42.660;23.262;2024-01-30T02:03:43;6.53;;;4.93;;
9461;SDS011;4769;42.660;23.262;2024-01-30T02:06:10;6.17;;;5.10;;
9461;SDS011;4769;42.660;23.262;2024-01-30T02:08:37;7.83;;;5.40;;
9461;SDS011;4769;42.660;23.262;2024-01-30T02:11:02;6.97;;;5.13;;
9461;SDS011;4769;42.660;23.262;2024-01-30T02:13:28;8.57;;;5.70;;
9461;SDS011;4769;42.660;23.262;2024-01-30T02:15:53;7.93;;;6.07;;
9461;SDS011;4769;42.660;23.262;2024-01-30T02:18:20;9.33;;;5.60;;
9461;SDS011;4769;42.660;23.262;2024-01-30T02:20:49;6.43;;;5.00;;
9461;SDS011;4769;42.660;23.262;2024-01-30T02:23:18;6.50;;;5.10;;
9461;SDS011;4769;42.660;23.262;2024-01-30T02:25:45;9.03;;;5.50;;
9461;SDS011;4769;42.660;23.262;2024-01-30T02:28:13;6.20;;;4.70;;
9461;SDS011;4769;42.660;23.262;2024-01-30T02:30:40;7.23;;;4.80;;
9461;SDS011;4769;42.660;23.262;2024-01-30T02:33:05;6.00;;;5.00;;
9461;SDS011;4769;42.660;23.262;2024-01-30T02:35:31;6.83;;;5.27;;
9461;SDS011;4769;42.660;23.262;2024-01-30T02:37:58;6.83;;;5.43;;
9461;SDS011;4769;42.660;23.262;2024-01-30T02:40:24;6.70;;;5.07;;
9461;SDS011;4769;42.660;23.262;2024-01-30T02:42:49;6.47;;;5.13;;
9461;SDS011;4769;42.660;23.262;2024-01-30T02:45:14;5.27;;;4.50;;
9461;SDS011;4769;42.660;23.262;2024-01-30T02:47:40;7.53;;;5.03;;
9461;SDS011;4769;42.660;23.262;2024-01-30T02:50:06;6.40;;;5.30;;
9461;SDS011;4769;42.660;23.262;2024-01-30T02:52:31;7.30;;;4.83;;
9461;SDS011;4769;42.660;23.262;2024-01-30T02:54:57;7.13;;;5.50;;
9461;SDS011;4769;42.660;23.262;2024-01-30T02:57:22;6.53;;;5.10;;
9461;SDS011;4769;42.660;23.262;2024-01-30T02:59:48;6.43;;;5.17;;
9461;SDS011;4769;42.660;23.262;2024-01-30T03:02:13;6.93;;;5.10;;
9461;SDS011;4769;42.660;23.262;2024-01-30T03:04:40;7.13;;;5.33;;
9461;SDS011;4769;42.660;23.262;2024-01-30T03:07:06;10.10;;;4.93;;
9461;SDS011;4769;42.660;23.262;2024-01-30T03:09:32;5.60;;;4.60;;
9461;SDS011;4769;42.660;23.262;2024-01-30T03:11:58;8.70;;;5.07;;
9461;SDS011;4769;42.660;23.262;2024-01-30T03:14:23;9.30;;;5.03;;
9461;SDS011;4769;42.660;23.262;2024-01-30T03:16:49;7.47;;;4.70;;
9461;SDS011;4769;42.660;23.262;2024-01-30T03:19:14;6.37;;;4.50;;
9461;SDS011;4769;42.660;23.262;2024-01-30T03:21:39;5.40;;;4.00;;
9461;SDS011;4769;42.660;23.262;2024-01-30T03:24:05;4.80;;;4.23;;
9461;SDS011;4769;42.660;23.262;2024-01-30T03:26:30;6.20;;;4.63;;
9461;SDS011;4769;42.660;23.262;2024-01-30T03:28:56;8.30;;;4.37;;
9461;SDS011;4769;42.660;23.262;2024-01-30T03:31:22;4.90;;;3.93;;
9461;SDS011;4769;42.660;23.262;2024-01-30T03:33:47;5.80;;;4.23;;
9461;SDS011;4769;42.660;23.262;2024-01-30T03:36:12;5.87;;;4.57;;
9461;SDS011;4769;42.660;23.262;2024-01-30T03:38:38;5.93;;;3.80;;
9461;SDS011;4769;42.660;23.262;2024-01-30T03:41:07;4.60;;;3.67;;
9461;SDS011;4769;42.660;23.262;2024-01-30T03:43:34;6.37;;;4.20;;
9461;SDS011;4769;42.660;23.262;2024-01-30T03:45:59;5.07;;;3.97;;
9461;SDS011;4769;42.660;23.262;2024-01-30T03:48:26;5.13;;;3.73;;
9461;SDS011;4769;42.660;23.262;2024-01-30T03:50:51;5.63;;;4.00;;
9461;SDS011;4769;42.660;23.262;2024-01-30T03:53:17;5.20;;;3.73;;
9461;SDS011;4769;42.660;23.262;2024-01-30T03:55:42;4.87;;;4.03;;
9461;SDS011;4769;42.660;23.262;2024-01-30T03:58:08;5.93;;;4.30;;
9461;SDS011;4769;42.660;23.262;2024-01-30T04:00:33;4.50;;;3.57;;
9461;SDS011;4769;42.660;23.262;2024-01-30T04:02:59;6.10;;;4.20;;
9461;SDS011;4769;42.660;23.262;2024-01-30T04:05:24;5.00;;;3.83;;
9461;SDS011;4769;42.660;23.262;2024-01-30T04:07:50;6.03;;;4.23;;
9461;SDS011;4769;42.660;23.262;2024-01-30T04:10:16;7.53;;;3.93;;
9461;SDS011;4769;42.660;23.262;2024-01-30T04:12:41;5.47;;;4.10;;
9461;SDS011;4769;42.660;23.262;2024-01-30T04:15:07;8.20;;;3.47;;
9461;SDS011;4769;42.660;23.262;2024-01-30T04:17:33;6.40;;;3.97;;
9461;SDS011;4769;42.660;23.262;2024-01-30T04:19:58;4.77;;;3.50;;
9461;SDS011;4769;42.660;23.262;2024-01-30T04:22:24;4.60;;;3.90;;
9461;SDS011;4769;42.660;23.262;2024-01-30T04:24:49;4.40;;;3.67;;
9461;SDS011;4769;42.660;23.262;2024-01-30T04:27:14;4.60;;;3.87;;
9461;SDS011;4769;42.660;23.262;2024-01-30T04:29:40;4.30;;;3.33;;
9461;SDS011;4769;42.660;23.262;2024-01-30T04:32:05;5.70;;;3.90;;
9461;SDS011;4769;42.660;23.262;2024-01-30T04:34:32;13.30;;;8.00;;
9461;SDS011;4769;42.660;23.262;2024-01-30T04:36:57;7.80;;;4.00;;
9461;SDS011;4769;42.660;23.262;2024-01-30T04:39:22;5.87;;;4.00;;
9461;SDS011;4769;42.660;23.262;2024-01-30T04:41:48;6.10;;;4.40;;
9461;SDS011;4769;42.660;23.262;2024-01-30T04:44:14;6.17;;;4.30;;
9461;SDS011;4769;42.660;23.262;2024-01-30T04:46:39;7.23;;;4.30;;
9461;SDS011;4769;42.660;23.262;2024-01-30T04:49:05;5.53;;;4.83;;
9461;SDS011;4769;42.660;23.262;2024-01-30T04:51:32;6.30;;;5.20;;
9461;SDS011;4769;42.660;23.262;2024-01-30T04:53:58;6.00;;;4.47;;
9461;SDS011;4769;42.660;23.262;2024-01-30T04:56:23;5.50;;;3.87;;
9461;SDS011;4769;42.660;23.262;2024-01-30T04:58:49;10.80;;;4.67;;
9461;SDS011;4769;42.660;23.262;2024-01-30T05:01:17;7.60;;;4.93;;
9461;SDS011;4769;42.660;23.262;2024-01-30T05:03:43;7.10;;;5.17;;
9461;SDS011;4769;42.660;23.262;2024-01-30T05:06:09;8.33;;;5.00;;
9461;SDS011;4769;42.660;23.262;2024-01-30T05:08:34;6.87;;;4.43;;
9461;SDS011;4769;42.660;23.262;2024-01-30T05:11:02;5.97;;;4.77;;
9461;SDS011;4769;42.660;23.262;2024-01-30T05:13:30;6.93;;;4.40;;
9461;SDS011;4769;42.660;23.262;2024-01-30T05:15:56;8.73;;;3.93;;
9461;SDS011;4769;42.660;23.262;2024-01-30T05:18:21;4.93;;;3.93;;
9461;SDS011;4769;42.660;23.262;2024-01-30T05:20:47;5.33;;;4.00;;
9461;SDS011;4769;42.660;23.262;2024-01-30T05:23:12;7.40;;;4.57;;
9461;SDS011;4769;42.660;23.262;2024-01-30T05:25:37;7.77;;;5.60;;
9461;SDS011;4769;42.660;23.262;2024-01-30T05:28:03;5.43;;;4.13;;
9461;SDS011;4769;42.660;23.262;2024-01-30T05:30:28;7.10;;;4.60;;
9461;SDS011;4769;42.660;23.262;2024-01-30T05:32:54;7.80;;;4.90;;
9461;SDS011;4769;42.660;23.262;2024-01-30T05:35:19;17.13;;;5.67;;
9461;SDS011;4769;42.660;23.262;2024-01-30T05:37:47;16.03;;;6.20;;
9461;SDS011;4769;42.660;23.262;2024-01-30T05:40:18;9.63;;;5.70;;
9461;SDS011;4769;42.660;23.262;2024-01-30T05:42:44;13.33;;;6.17;;
9461;SDS011;4769;42.660;23.262;2024-01-30T05:45:09;14.10;;;5.77;;
9461;SDS011;4769;42.660;23.262;2024-01-30T05:47:35;9.50;;;4.97;;
9461;SDS011;4769;42.660;23.262;2024-01-30T05:50:00;8.60;;;5.63;;
9461;SDS011;4769;42.660;23.262;2024-01-30T05:52:25;8.17;;;5.20;;
9461;SDS011;4769;42.660;23.262;2024-01-30T05:54:51;11.33;;;5.70;;
9461;SDS011;4769;42.660;23.262;2024-01-30T05:57:16;6.13;;;4.80;;
9461;SDS011;4769;42.660;23.262;2024-01-30T05:59:42;21.47;;;5.63;;
9461;SDS011;4769;42.660;23.262;2024-01-30T06:02:10;8.43;;;5.67;;
9461;SDS011;4769;42.660;23.262;2024-01-30T06:04:35;10.93;;;6.00;;
9461;SDS011;4769;42.660;23.262;2024-01-30T06:07:01;20.07;;;8.47;;
9461;SDS011;4769;42.660;23.262;2024-01-30T06:09:27;17.00;;;10.43;;
9461;SDS011;4769;42.660;23.262;2024-01-30T06:11:53;19.93;;;9.70;;
9461;SDS011;4769;42.660;23.262;2024-01-30T06:14:19;12.27;;;7.43;;
9461;SDS011;4769;42.660;23.262;2024-01-30T06:16:44;13.53;;;6.23;;
9461;SDS011;4769;42.660;23.262;2024-01-30T06:19:09;8.43;;;4.83;;
9461;SDS011;4769;42.660;23.262;2024-01-30T06:21:35;7.47;;;5.03;;
9461;SDS011;4769;42.660;23.262;2024-01-30T06:24:02;10.73;;;5.83;;
9461;SDS011;4769;42.660;23.262;2024-01-30T06:26:27;10.90;;;5.37;;
9461;SDS011;4769;42.660;23.262;2024-01-30T06:28:53;11.43;;;5.33;;
9461;SDS011;4769;42.660;23.262;2024-01-30T06:31:18;20.37;;;8.17;;
9461;SDS011;4769;42.660;23.262;2024-01-30T06:33:46;10.80;;;5.60;;
9461;SDS011;4769;42.660;23.262;2024-01-30T06:36:12;14.77;;;6.50;;
9461;SDS011;4769;42.660;23.262;2024-01-30T06:38:37;14.83;;;5.70;;
9461;SDS011;4769;42.660;23.262;2024-01-30T06:41:03;10.50;;;5.27;;
9461;SDS011;4769;42.660;23.262;2024-01-30T06:43:28;9.77;;;5.10;;
9461;SDS011;4769;42.660;23.262;2024-01-30T06:45:56;13.87;;;5.30;;
9461;SDS011;4769;42.660;23.262;2024-01-30T06:48:22;15.60;;;5.63;;
9461;SDS011;4769;42.660;23.262;2024-01-30T06:50:47;13.50;;;6.27;;
9461;SDS011;4769;42.660;23.262;2024-01-30T06:53:14;12.27;;;6.57;;
9461;SDS011;4769;42.660;23.262;2024-01-30T06:55:39;8.13;;;5.50;;
9461;SDS011;4769;42.660;23.262;2024-01-30T06:58:05;9.77;;;5.10;;
9461;SDS011;4769;42.660;23.262;2024-01-30T07:00:30;7.23;;;5.20;;
9461;SDS011;4769;42.660;23.262;2024-01-30T07:02:56;6.40;;;5.20;;
9461;SDS011;4769;42.660;23.262;2024-01-30T07:05:21;8.67;;;4.97;;
9461;SDS011;4769;42.660;23.262;2024-01-30T07:07:47;9.17;;;4.90;;
9461;SDS011;4769;42.660;23.262;2024-01-30T07:10:12;10.90;;;5.17;;
9461;SDS011;4769;42.660;23.262;2024-01-30T07:12:38;9.60;;;4.50;;
9461;SDS011;4769;42.660;23.262;2024-01-30T07:15:03;10.53;;;4.90;;
9461;SDS011;4769;42.660;23.262;2024-01-30T07:17:33;10.60;;;4.90;;
9461;SDS011;4769;42.660;23.262;2024-01-30T07:19:58;11.23;;;5.20;;
9461;SDS011;4769;42.660;23.262;2024-01-30T07:22:24;8.60;;;4.17;;
9461;SDS011;4769;42.660;23.262;2024-01-30T07:24:49;10.50;;;4.00;;
9461;SDS011;4769;42.660;23.262;2024-01-30T07:27:16;9.87;;;3.70;;
9461;SDS011;4769;42.660;23.262;2024-01-30T07:29:43;17.90;;;5.77;;
9461;SDS011;4769;42.660;23.262;2024-01-30T07:32:08;9.07;;;4.77;;
9461;SDS011;4769;42.660;23.262;2024-01-30T07:34:34;11.83;;;4.80;;
9461;SDS011;4769;42.660;23.262;2024-01-30T07:36:59;8.17;;;4.83;;
9461;SDS011;4769;42.660;23.262;2024-01-30T07:39:24;8.23;;;4.23;;
9461;SDS011;4769;42.660;23.262;2024-01-30T07:41:50;8.20;;;4.10;;
9461;SDS011;4769;42.660;23.262;2024-01-30T07:44:15;5.87;;;3.60;;
9461;SDS011;4769;42.660;23.262;2024-01-30T07:46:41;8.47;;;6.80;;
9461;SDS011;4769;42.660;23.262;2024-01-30T07:49:06;4.80;;;4.30;;
9461;SDS011;4769;42.660;23.262;2024-01-30T07:51:31;11.20;;;5.80;;
9461;SDS011;4769;42.660;23.262;2024-01-30T07:53:58;10.47;;;4.80;;
9461;SDS011;4769;42.660;23.262;2024-01-30T07:56:23;9.93;;;5.10;;
9461;SDS011;4769;42.660;23.262;2024-01-30T07:58:49;8.37;;;3.90;;
9461;SDS011;4769;42.660;23.262;2024-01-30T08:01:14;7.43;;;3.97;;
9461;SDS011;4769;42.660;23.262;2024-01-30T08:03:40;7.50;;;4.27;;
9461;SDS011;4769;42.660;23.262;2024-01-30T08:06:06;13.07;;;4.33;;
9461;SDS011;4769;42.660;23.262;2024-01-30T08:08:32;16.83;;;4.07;;
9461;SDS011;4769;42.660;23.262;2024-01-30T08:10:58;9.63;;;3.77;;
9461;SDS011;4769;42.660;23.262;2024-01-30T08:13:23;6.53;;;4.30;;
9461;SDS011;4769;42.660;23.262;2024-01-30T08:15:49;9.40;;;4.23;;
9461;SDS011;4769;42.660;23.262;2024-01-30T08:18:18;7.07;;;4.30;;
9461;SDS011;4769;42.660;23.262;2024-01-30T08:20:43;7.80;;;4.10;;
9461;SDS011;4769;42.660;23.262;2024-01-30T08:23:09;8.50;;;3.63;;
9461;SDS011;4769;42.660;23.262;2024-01-30T08:25:35;9.83;;;4.47;;
9461;SDS011;4769;42.660;23.262;2024-01-30T08:28:01;7.30;;;3.33;;
9461;SDS011;4769;42.660;23.262;2024-01-30T08:30:27;3.97;;;3.30;;
9461;SDS011;4769;42.660;23.262;2024-01-30T08:32:52;5.53;;;3.60;;
9461;SDS011;4769;42.660;23.262;2024-01-30T08:35:18;4.87;;;3.70;;
9461;SDS011;4769;42.660;23.262;2024-01-30T08:37:43;11.33;;;4.83;;
9461;SDS011;4769;42.660;23.262;2024-01-30T08:40:09;5.40;;;2.97;;
9461;SDS011;4769;42.660;23.262;2024-01-30T08:42:35;4.00;;;3.53;;
9461;SDS011;4769;42.660;23.262;2024-01-30T08:45:00;5.73;;;4.40;;
9461;SDS011;4769;42.660;23.262;2024-01-30T08:47:26;6.93;;;3.93;;
9461;SDS011;4769;42.660;23.262;2024-01-30T08:49:51;10.57;;;4.50;;
9461;SDS011;4769;42.660;23.262;2024-01-30T08:52:17;12.13;;;4.17;;
9461;SDS011;4769;42.660;23.262;2024-01-30T08:54:45;5.07;;;3.60;;
9461;SDS011;4769;42.660;23.262;2024-01-30T08:57:10;7.97;;;3.80;;
9461;SDS011;4769;42.660;23.262;2024-01-30T08:59:36;6.83;;;4.10;;
9461;SDS011;4769;42.660;23.262;2024-01-30T09:02:01;8.73;;;4.23;;
9461;SDS011;4769;42.660;23.262;2024-01-30T09:04:27;12.13;;;4.60;;
9461;SDS011;4769;42.660;23.262;2024-01-30T09:06:53;6.10;;;4.20;;
9461;SDS011;4769;42.660;23.262;2024-01-30T09:09:19;4.70;;;3.83;;
9461;SDS011;4769;42.660;23.262;2024-01-30T09:11:44;5.93;;;4.67;;
9461;SDS011;4769;42.660;23.262;2024-01-30T09:14:09;7.77;;;5.10;;
9461;SDS011;4769;42.660;23.262;2024-01-30T09:16:35;9.63;;;5.53;;
9461;SDS011;4769;42.660;23.262;2024-01-30T09:19:01;9.27;;;6.10;;
9461;SDS011;4769;42.660;23.262;2024-01-30T09:21:27;6.63;;;4.30;;
9461;SDS011;4769;42.660;23.262;2024-01-30T09:23:54;7.53;;;5.03;;
9461;SDS011;4769;42.660;23.262;2024-01-30T09:26:20;7.47;;;5.37;;
9461;SDS011;4769;42.660;23.262;2024-01-30T09:28:45;7.27;;;5.30;;
9461;SDS011;4769;42.660;23.262;2024-01-30T09:31:11;7.40;;;4.97;;
9461;SDS011;4769;42.660;23.262;2024-01-30T09:33:37;9.77;;;5.93;;
9461;SDS011;4769;42.660;23.262;2024-01-30T09:36:03;7.73;;;4.57;;
9461;SDS011;4769;42.660;23.262;2024-01-30T09:38:28;10.17;;;5.93;;
9461;SDS011;4769;42.660;23.262;2024-01-30T09:40:54;13.37;;;5.47;;
9461;SDS011;4769;42.660;23.262;2024-01-30T09:43:22;13.30;;;5.67;;
9461;SDS011;4769;42.660;23.262;2024-01-30T09:45:48;10.53;;;5.20;;
9461;SDS011;4769;42.660;23.262;2024-01-30T09:48:15;9.50;;;4.53;;
9461;SDS011;4769;42.660;23.262;2024-01-30T09:50:41;5.87;;;4.37;;
9461;SDS011;4769;42.660;23.262;2024-01-30T09:53:07;5.40;;;4.00;;
9461;SDS011;4769;42.660;23.262;2024-01-30T09:55:35;7.90;;;4.70;;
9461;SDS011;4769;42.660;23.262;2024-01-30T09:58:01;12.20;;;4.93;;
9461;SDS011;4769;42.660;23.262;2024-01-30T10:00:26;6.80;;;4.73;;
9461;SDS011;4769;42.660;23.262;2024-01-30T10:02:52;7.67;;;4.93;;
9461;SDS011;4769;42.660;23.262;2024-01-30T10:05:18;7.60;;;4.60;;
9461;SDS011;4769;42.660;23.262;2024-01-30T10:07:54;6.33;;;5.10;;
9461;SDS011;4769;42.660;23.262;2024-01-30T10:10:25;7.27;;;5.00;;
9461;SDS011;4769;42.660;23.262;2024-01-30T10:12:51;8.53;;;4.83;;
9461;SDS011;4769;42.660;23.262;2024-01-30T10:15:17;8.23;;;5.33;;
9461;SDS011;4769;42.660;23.262;2024-01-30T10:17:47;8.70;;;4.77;;
9461;SDS011;4769;42.660;23.262;2024-01-30T10:20:14;7.13;;;5.20;;
9461;SDS011;4769;42.660;23.262;2024-01-30T10:22:43;7.00;;;4.90;;
9461;SDS011;4769;42.660;23.262;2024-01-30T10:25:10;8.40;;;5.30;;
9461;SDS011;4769;42.660;23.262;2024-01-30T10:27:36;11.00;;;4.97;;
9461;SDS011;4769;42.660;23.262;2024-01-30T10:30:01;5.90;;;4.13;;
9461;SDS011;4769;42.660;23.262;2024-01-30T10:32:29;5.93;;;4.50;;
9461;SDS011;4769;42.660;23.262;2024-01-30T10:34:54;10.57;;;5.03;;
9461;SDS011;4769;42.660;23.262;2024-01-30T10:37:20;9.27;;;4.03;;
9461;SDS011;4769;42.660;23.262;2024-01-30T10:39:49;4.70;;;4.00;;
9461;SDS011;4769;42.660;23.262;2024-01-30T10:42:18;5.27;;;4.07;;
9461;SDS011;4769;42.660;23.262;2024-01-30T10:47:28;20.10;;;4.73;;
9461;SDS011;4769;42.660;23.262;2024-01-30T10:49:55;6.67;;;4.07;;
9461;SDS011;4769;42.660;23.262;2024-01-30T10:52:22;6.10;;;5.20;;
9461;SDS011;4769;42.660;23.262;2024-01-30T10:54:51;7.40;;;4.73;;
9461;SDS011;4769;42.660;23.262;2024-01-30T10:57:17;10.10;;;5.17;;
9461;SDS011;4769;42.660;23.262;2024-01-30T10:59:43;6.43;;;4.50;;
9461;SDS011;4769;42.660;23.262;2024-01-30T11:02:10;10.40;;;4.70;;
9461;SDS011;4769;42.660;23.262;2024-01-30T11:04:42;8.47;;;5.17;;
9461;SDS011;4769;42.660;23.262;2024-01-30T11:07:14;8.43;;;5.17;;
9461;SDS011;4769;42.660;23.262;2024-01-30T11:09:53;8.23;;;4.50;;
9461;SDS011;4769;42.660;23.262;2024-01-30T11:12:26;6.13;;;4.40;;
9461;SDS011;4769;42.660;23.262;2024-01-30T11:20:29;10.77;;;4.87;;
9461;SDS011;4769;42.660;23.262;2024-01-30T11:23:00;7.13;;;4.77;;
9461;SDS011;4769;42.660;23.262;2024-01-30T11:25:32;7.83;;;4.20;;
9461;SDS011;4769;42.660;23.262;2024-01-30T11:27:58;7.83;;;4.30;;
9461;SDS011;4769;42.660;23.262;2024-01-30T11:30:27;5.70;;;4.40;;
9461;SDS011;4769;42.660;23.262;2024-01-30T11:33:04;5.30;;;4.10;;
9461;SDS011;4769;42.660;23.262;2024-01-30T11:35:34;6.50;;;4.47;;
9461;SDS011;4769;42.660;23.262;2024-01-30T11:38:01;6.87;;;4.10;;
9461;SDS011;4769;42.660;23.262;2024-01-30T11:40:28;6.93;;;4.30;;
9461;SDS011;4769;42.660;23.262;2024-01-30T11:42:55;6.33;;;4.33;;
9461;SDS011;4769;42.660;23.262;2024-01-30T11:45:21;8.57;;;4.47;;
9461;SDS011;4769;42.660;23.262;2024-01-30T11:47:46;6.67;;;3.93;;
9461;SDS011;4769;42.660;23.262;2024-01-30T11:50:12;12.47;;;4.60;;
9461;SDS011;4769;42.660;23.262;2024-01-30T11:52:38;5.63;;;4.47;;
9461;SDS011;4769;42.660;23.262;2024-01-30T11:55:04;9.10;;;5.10;;
9461;SDS011;4769;42.660;23.262;2024-01-30T11:57:30;16.60;;;4.83;;
9461;SDS011;4769;42.660;23.262;2024-01-30T11:59:56;21.77;;;4.97;;
9461;SDS011;4769;42.660;23.262;2024-01-30T12:02:23;4.43;;;3.90;;
9461;SDS011;4769;42.660;23.262;2024-01-30T12:04:49;6.47;;;4.43;;
9461;SDS011;4769;42.660;23.262;2024-01-30T12:07:14;5.60;;;4.00;;
9461;SDS011;4769;42.660;23.262;2024-01-30T12:09:41;7.37;;;4.17;;
9461;SDS011;4769;42.660;23.262;2024-01-30T12:12:07;24.37;;;5.63;;
9461;SDS011;4769;42.660;23.262;2024-01-30T12:14:42;5.60;;;3.93;;
9461;SDS011;4769;42.660;23.262;2024-01-30T12:17:07;7.40;;;4.40;;
9461;SDS011;4769;42.660;23.262;2024-01-30T12:19:34;6.70;;;4.30;;
9461;SDS011;4769;42.660;23.262;2024-01-30T12:22:03;5.83;;;4.77;;
9461;SDS011;4769;42.660;23.262;2024-01-30T12:24:29;5.27;;;4.27;;
9461;SDS011;4769;42.660;23.262;2024-01-30T12:26:58;7.67;;;4.60;;
9461;SDS011;4769;42.660;23.262;2024-01-30T12:29:24;8.73;;;5.00;;
9461;SDS011;4769;42.660;23.262;2024-01-30T12:31:52;9.38;;;4.85;;
9461;SDS011;4769;42.660;23.262;2024-01-30T12:34:18;10.15;;;4.38;;
9461;SDS011;4769;42.660;23.262;2024-01-30T12:36:46;11.73;;;4.53;;
9461;SDS011;4769;42.660;23.262;2024-01-30T12:39:14;5.57;;;4.50;;
9461;SDS011;4769;42.660;23.262;2024-01-30T12:41:40;6.63;;;4.05;;
9461;SDS011;4769;42.660;23.262;2024-01-30T12:44:05;7.90;;;4.70;;
9461;SDS011;4769;42.660;23.262;2024-01-30T12:46:33;10.90;;;4.93;;
9461;SDS011;4769;42.660;23.262;2024-01-30T12:48:59;8.57;;;4.57;;
9461;SDS011;4769;42.660;23.262;2024-01-30T12:51:24;12.90;;;4.57;;
9461;SDS011;4769;42.660;23.262;2024-01-30T12:53:50;8.52;;;4.75;;
9461;SDS011;4769;42.660;23.262;2024-01-30T12:56:15;14.52;;;5.18;;
9461;SDS011;4769;42.660;23.262;2024-01-30T12:58:41;10.18;;;5.43;;
9461;SDS011;4769;42.660;23.262;2024-01-30T13:01:08;13.90;;;5.72;;
9461;SDS011;4769;42.660;23.262;2024-01-30T13:03:33;12.85;;;5.32;;
9461;SDS011;4769;42.660;23.262;2024-01-30T13:05:59;11.20;;;4.55;;
9461;SDS011;4769;42.660;23.262;2024-01-30T13:08:25;7.00;;;4.80;;
9461;SDS011;4769;42.660;23.262;2024-01-30T13:10:50;8.20;;;5.10;;
9461;SDS011;4769;42.660;23.262;2024-01-30T13:13:16;5.55;;;4.90;;
9461;SDS011;4769;42.660;23.262;2024-01-30T13:15:42;10.05;;;4.50;;
9461;SDS011;4769;42.660;23.262;2024-01-30T13:18:07;5.18;;;4.55;;
9461;SDS011;4769;42.660;23.262;2024-01-30T13:20:33;7.45;;;4.82;;
9461;SDS011;4769;42.660;23.262;2024-01-30T13:22:58;6.03;;;5.13;;
9461;SDS011;4769;42.660;23.262;2024-01-30T13:25:24;5.43;;;4.32;;
9461;SDS011;4769;42.660;23.262;2024-01-30T13:27:49;6.03;;;4.82;;
9461;SDS011;4769;42.660;23.262;2024-01-30T13:30:15;7.80;;;5.40;;
9461;SDS011;4769;42.660;23.262;2024-01-30T13:32:40;10.50;;;5.38;;
9461;SDS011;4769;42.660;23.262;2024-01-30T13:35:09;5.43;;;4.90;;
9461;SDS011;4769;42.660;23.262;2024-01-30T13:37:35;8.70;;;5.00;;
9461;SDS011;4769;42.660;23.262;2024-01-30T13:40:00;11.63;;;4.88;;
9461;SDS011;4769;42.660;23.262;2024-01-30T13:42:27;9.43;;;5.53;;
9461;SDS011;4769;42.660;23.262;2024-01-30T13:44:52;4.85;;;4.45;;
9461;SDS011;4769;42.660;23.262;2024-01-30T13:47:18;11.63;;;5.70;;
9461;SDS011;4769;42.660;23.262;2024-01-30T13:49:46;5.43;;;4.93;;
9461;SDS011;4769;42.660;23.262;2024-01-30T13:52:12;9.13;;;5.70;;
9461;SDS011;4769;42.660;23.262;2024-01-30T13:54:38;8.23;;;5.32;;
9461;SDS011;4769;42.660;23.262;2024-01-30T13:57:03;7.32;;;5.07;;
9461;SDS011;4769;42.660;23.262;2024-01-30T13:59:29;6.05;;;5.28;;
9461;SDS011;4769;42.660;23.262;2024-01-30T14:01:54;9.90;;;5.73;;
9461;SDS011;4769;42.660;23.262;2024-01-30T14:04:20;6.63;;;5.43;;
9461;SDS011;4769;42.660;23.262;2024-01-30T14:06:45;10.77;;;5.83;;
9461;SDS011;4769;42.660;23.262;2024-01-30T14:09:11;7.57;;;5.03;;
9461;SDS011;4769;42.660;23.262;2024-01-30T14:11:36;12.27;;;7.83;;
9461;SDS011;4769;42.660;23.262;2024-01-30T14:14:01;8.47;;;5.87;;
9461;SDS011;4769;42.660;23.262;2024-01-30T14:16:27;7.10;;;5.43;;
9461;SDS011;4769;42.660;23.262;2024-01-30T14:18:53;7.00;;;5.63;;
9461;SDS011;4769;42.660;23.262;2024-01-30T14:21:19;11.27;;;6.43;;
9461;SDS011;4769;42.660;23.262;2024-01-30T14:23:44;18.93;;;6.30;;
9461;SDS011;4769;42.660;23.262;2024-01-30T14:26:10;10.47;;;6.40;;
9461;SDS011;4769;42.660;23.262;2024-01-30T14:28:35;7.23;;;5.47;;
9461;SDS011;4769;42.660;23.262;2024-01-30T14:31:01;7.07;;;5.60;;
9461;SDS011;4769;42.660;23.262;2024-01-30T14:33:26;9.87;;;5.87;;
9461;SDS011;4769;42.660;23.262;2024-01-30T14:35:52;9.83;;;6.33;;
9461;SDS011;4769;42.660;23.262;2024-01-30T14:38:17;6.27;;;5.17;;
9461;SDS011;4769;42.660;23.262;2024-01-30T14:40:43;13.00;;;6.53;;
9461;SDS011;4769;42.660;23.262;2024-01-30T14:43:10;11.07;;;6.87;;
9461;SDS011;4769;42.660;23.262;2024-01-30T14:45:36;11.73;;;6.20;;
9461;SDS011;4769;42.660;23.262;2024-01-30T14:48:01;9.53;;;5.93;;
9461;SDS011;4769;42.660;23.262;2024-01-30T14:50:27;14.63;;;6.00;;
9461;SDS011;4769;42.660;23.262;2024-01-30T14:52:53;18.70;;;7.60;;
9461;SDS011;4769;42.660;23.262;2024-01-30T14:55:19;37.97;;;16.53;;
9461;SDS011;4769;42.660;23.262;2024-01-30T14:57:44;55.83;;;26.27;;
9461;SDS011;4769;42.660;23.262;2024-01-30T15:00:11;56.33;;;29.20;;